sensor_id;sensor_type;location;lat;lon;timestamp;pressure;altitude;pressure_sealevel;temperature;humidity
25722;BME280;13578;53.450;15.496;2023-10-08T00:00:39;99815.94;;;10.04;100.00
25722;BME280;13578;53.450;15.496;2023-10-08T00:03:43;99810.59;;;10.02;100.00
25722;BME280;13578;53.450;15.496;2023-10-08T00:06:58;99785.72;;;9.94;100.00
25722;BME280;13578;53.450;15.496;2023-10-08T00:09:59;99789.63;;;9.91;100.00
25722;BME280;13578;53.450;15.496;2023-10-08T00:12:59;99792.06;;;9.94;100.00
25722;BME280;13578;53.450;15.496;2023-10-08T00:16:00;99808.16;;;9.88;100.00
25722;BME280;13578;53.450;15.496;2023-10-08T00:19:00;99825.25;;;9.91;100.00
25722;BME280;13578;53.450;15.496;2023-10-08T00:22:09;99813.34;;;9.81;100.00
25722;BME280;13578;53.450;15.496;2023-10-08T00:25:10;99812.59;;;9.79;100.00
25722;BME280;13578;53.450;15.496;2023-10-08T00:28:12;99827.19;;;9.79;100.00
25722;BME280;13578;53.450;15.496;2023-10-08T00:31:14;99840.28;;;9.76;100.00
25722;BME280;13578;53.450;15.496;2023-10-08T00:34:18;99853.84;;;9.77;100.00
25722;BME280;13578;53.450;15.496;2023-10-08T00:37:20;99861.94;;;9.79;100.00
25722;BME280;13578;53.450;15.496;2023-10-08T00:40:24;99867.19;;;9.70;100.00
25722;BME280;13578;53.450;15.496;2023-10-08T00:43:31;99872.94;;;9.67;100.00
25722;BME280;13578;53.450;15.496;2023-10-08T00:46:34;99879.22;;;9.58;100.00
25722;BME280;13578;53.450;15.496;2023-10-08T00:49:51;99895.50;;;9.60;100.00
25722;BME280;13578;53.450;15.496;2023-10-08T00:53:12;99884.06;;;9.54;100.00
25722;BME280;13578;53.450;15.496;2023-10-08T00:56:21;99902.41;;;9.54;100.00
25722;BME280;13578;53.450;15.496;2023-10-08T00:59:25;99903.41;;;9.53;100.00
25722;BME280;13578;53.450;15.496;2023-10-08T01:02:28;99918.34;;;9.49;100.00
25722;BME280;13578;53.450;15.496;2023-10-08T01:05:37;99926.06;;;9.44;100.00
25722;BME280;13578;53.450;15.496;2023-10-08T01:08:43;99936.28;;;9.42;100.00
25722;BME280;13578;53.450;15.496;2023-10-08T01:12:29;99936.31;;;9.30;100.00
25722;BME280;13578;53.450;15.496;2023-10-08T01:15:45;99952.47;;;9.33;100.00
25722;BME280;13578;53.450;15.496;2023-10-08T01:18:50;99963.44;;;9.33;100.00
25722;BME280;13578;53.450;15.496;2023-10-08T01:21:54;99975.50;;;9.31;100.00
25722;BME280;13578;53.450;15.496;2023-10-08T01:24:59;99946.53;;;9.17;100.00
25722;BME280;13578;53.450;15.496;2023-10-08T01:28:02;99964.97;;;9.15;100.00
25722;BME280;13578;53.450;15.496;2023-10-08T01:31:09;99957.47;;;9.05;100.00
25722;BME280;13578;53.450;15.496;2023-10-08T01:34:13;99960.22;;;9.05;100.00
25722;BME280;13578;53.450;15.496;2023-10-08T01:37:18;99964.72;;;9.06;100.00
25722;BME280;13578;53.450;15.496;2023-10-08T01:40:19;99980.28;;;9.06;100.00
25722;BME280;13578;53.450;15.496;2023-10-08T01:43:19;99997.31;;;9.10;100.00
25722;BME280;13578;53.450;15.496;2023-10-08T01:46:21;100000.44;;;9.05;100.00
25722;BME280;13578;53.450;15.496;2023-10-08T01:49:22;100007.25;;;8.99;100.00
25722;BME280;13578;53.450;15.496;2023-10-08T01:52:29;100002.78;;;8.98;100.00
25722;BME280;13578;53.450;15.496;2023-10-08T01:55:30;100021.44;;;8.93;100.00
25722;BME280;13578;53.450;15.496;2023-10-08T01:58:34;100016.47;;;8.87;100.00
25722;BME280;13578;53.450;15.496;2023-10-08T02:01:34;100025.88;;;8.83;100.00
25722;BME280;13578;53.450;15.496;2023-10-08T02:04:36;100031.38;;;8.83;100.00
25722;BME280;13578;53.450;15.496;2023-10-08T02:07:36;100030.09;;;8.76;100.00
25722;BME280;13578;53.450;15.496;2023-10-08T02:10:38;100037.06;;;8.68;100.00
25722;BME280;13578;53.450;15.496;2023-10-08T02:13:40;100054.22;;;8.59;100.00
25722;BME280;13578;53.450;15.496;2023-10-08T02:16:43;100059.41;;;8.51;100.00
25722;BME280;13578;53.450;15.496;2023-10-08T02:19:44;100072.31;;;8.49;100.00
25722;BME280;13578;53.450;15.496;2023-10-08T02:22:46;100065.53;;;8.41;100.00
25722;BME280;13578;53.450;15.496;2023-10-08T02:25:46;100072.47;;;8.34;100.00
25722;BME280;13578;53.450;15.496;2023-10-08T02:28:48;100076.66;;;8.27;100.00
25722;BME280;13578;53.450;15.496;2023-10-08T02:31:51;100076.59;;;8.16;100.00
25722;BME280;13578;53.450;15.496;2023-10-08T02:34:53;100082.97;;;8.16;100.00
25722;BME280;13578;53.450;15.496;2023-10-08T02:37:53;100078.81;;;8.10;100.00
25722;BME280;13578;53.450;15.496;2023-10-08T02:40:57;100089.09;;;8.07;100.00
25722;BME280;13578;53.450;15.496;2023-10-08T02:43:59;100098.53;;;8.03;100.00
25722;BME280;13578;53.450;15.496;2023-10-08T02:47:00;100111.25;;;7.91;100.00
25722;BME280;13578;53.450;15.496;2023-10-08T02:50:01;100098.78;;;7.87;100.00
25722;BME280;13578;53.450;15.496;2023-10-08T02:53:08;100098.47;;;7.78;100.00
25722;BME280;13578;53.450;15.496;2023-10-08T02:56:12;100109.53;;;7.77;100.00
25722;BME280;13578;53.450;15.496;2023-10-08T02:59:16;100083.97;;;7.65;100.00
25722;BME280;13578;53.450;15.496;2023-10-08T03:02:17;100097.31;;;7.57;100.00
25722;BME280;13578;53.450;15.496;2023-10-08T03:05:21;100112.19;;;7.66;100.00
25722;BME280;13578;53.450;15.496;2023-10-08T03:08:23;100112.72;;;7.58;100.00
25722;BME280;13578;53.450;15.496;2023-10-08T03:11:24;100123.66;;;7.58;100.00
25722;BME280;13578;53.450;15.496;2023-10-08T03:14:26;100120.06;;;7.44;100.00
25722;BME280;13578;53.450;15.496;2023-10-08T03:17:28;100134.94;;;7.40;100.00
25722;BME280;13578;53.450;15.496;2023-10-08T03:20:29;100127.19;;;7.34;100.00
25722;BME280;13578;53.450;15.496;2023-10-08T03:23:38;100131.44;;;7.25;100.00
25722;BME280;13578;53.450;15.496;2023-10-08T03:26:46;100143.66;;;7.20;100.00
25722;BME280;13578;53.450;15.496;2023-10-08T03:29:55;100142.59;;;7.22;100.00
25722;BME280;13578;53.450;15.496;2023-10-08T03:32:59;100148.56;;;7.14;100.00
25722;BME280;13578;53.450;15.496;2023-10-08T03:36:03;100144.53;;;7.07;100.00
25722;BME280;13578;53.450;15.496;2023-10-08T03:39:34;100142.78;;;7.06;100.00
25722;BME280;13578;53.450;15.496;2023-10-08T03:43:01;100150.41;;;7.01;100.00
25722;BME280;13578;53.450;15.496;2023-10-08T03:46:02;100156.72;;;7.02;100.00
25722;BME280;13578;53.450;15.496;2023-10-08T03:49:06;100147.66;;;6.88;100.00
25722;BME280;13578;53.450;15.496;2023-10-08T03:52:14;100159.56;;;7.00;100.00
25722;BME280;13578;53.450;15.496;2023-10-08T03:55:15;100157.09;;;6.97;100.00
25722;BME280;13578;53.450;15.496;2023-10-08T03:58:16;100166.09;;;6.84;100.00
25722;BME280;13578;53.450;15.496;2023-10-08T04:01:30;100169.78;;;6.83;100.00
25722;BME280;13578;53.450;15.496;2023-10-08T04:04:33;100173.72;;;6.79;100.00
25722;BME280;13578;53.450;15.496;2023-10-08T04:07:52;100184.16;;;6.73;100.00
25722;BME280;13578;53.450;15.496;2023-10-08T04:10:58;100192.16;;;6.76;100.00
25722;BME280;13578;53.450;15.496;2023-10-08T04:14:08;100199.00;;;6.68;100.00
25722;BME280;13578;53.450;15.496;2023-10-08T04:17:10;100195.19;;;6.71;100.00
25722;BME280;13578;53.450;15.496;2023-10-08T04:20:12;100200.88;;;6.68;100.00
25722;BME280;13578;53.450;15.496;2023-10-08T04:23:32;100210.66;;;6.58;100.00
25722;BME280;13578;53.450;15.496;2023-10-08T04:26:33;100220.88;;;6.54;100.00
25722;BME280;13578;53.450;15.496;2023-10-08T04:29:33;100215.72;;;6.49;100.00
25722;BME280;13578;53.450;15.496;2023-10-08T04:32:36;100213.97;;;6.48;100.00
25722;BME280;13578;53.450;15.496;2023-10-08T04:35:39;100228.59;;;6.47;100.00
25722;BME280;13578;53.450;15.496;2023-10-08T04:38:49;100224.44;;;6.42;100.00
25722;BME280;13578;53.450;15.496;2023-10-08T04:41:51;100228.22;;;6.39;100.00
25722;BME280;13578;53.450;15.496;2023-10-08T04:44:54;100239.22;;;6.38;100.00
25722;BME280;13578;53.450;15.496;2023-10-08T04:47:55;100241.88;;;6.25;100.00
25722;BME280;13578;53.450;15.496;2023-10-08T04:50:59;100244.72;;;6.09;100.00
25722;BME280;13578;53.450;15.496;2023-10-08T04:54:01;100250.47;;;6.04;100.00
25722;BME280;13578;53.450;15.496;2023-10-08T04:57:07;100263.00;;;6.07;100.00
25722;BME280;13578;53.450;15.496;2023-10-08T05:00:15;100275.75;;;5.92;100.00
25722;BME280;13578;53.450;15.496;2023-10-08T05:03:16;100274.38;;;5.84;100.00
25722;BME280;13578;53.450;15.496;2023-10-08T05:06:20;100275.06;;;5.73;100.00
25722;BME280;13578;53.450;15.496;2023-10-08T05:09:40;100265.13;;;5.72;100.00
25722;BME280;13578;53.450;15.496;2023-10-08T05:13:12;100272.78;;;5.66;100.00
25722;BME280;13578;53.450;15.496;2023-10-08T05:16:16;100286.22;;;5.69;100.00
25722;BME280;13578;53.450;15.496;2023-10-08T05:19:40;100292.66;;;5.68;100.00
25722;BME280;13578;53.450;15.496;2023-10-08T05:22:41;100292.75;;;5.66;100.00
25722;BME280;13578;53.450;15.496;2023-10-08T05:25:48;100300.78;;;5.53;100.00
25722;BME280;13578;53.450;15.496;2023-10-08T05:29:06;100305.66;;;5.48;100.00
25722;BME280;13578;53.450;15.496;2023-10-08T05:32:27;100303.09;;;5.45;100.00
25722;BME280;13578;53.450;15.496;2023-10-08T05:35:40;100314.59;;;5.50;100.00
25722;BME280;13578;53.450;15.496;2023-10-08T05:38:41;100318.97;;;5.53;100.00
25722;BME280;13578;53.450;15.496;2023-10-08T05:41:50;100320.34;;;5.60;100.00
25722;BME280;13578;53.450;15.496;2023-10-08T05:45:13;100322.19;;;5.60;100.00
25722;BME280;13578;53.450;15.496;2023-10-08T05:48:27;100332.13;;;5.61;100.00
25722;BME280;13578;53.450;15.496;2023-10-08T05:51:33;100335.63;;;5.63;100.00
25722;BME280;13578;53.450;15.496;2023-10-08T05:54:48;100343.00;;;5.61;100.00
25722;BME280;13578;53.450;15.496;2023-10-08T05:58:16;100358.09;;;5.66;100.00
25722;BME280;13578;53.450;15.496;2023-10-08T06:01:19;100361.41;;;5.71;100.00
25722;BME280;13578;53.450;15.496;2023-10-08T06:04:40;100366.69;;;5.75;100.00
25722;BME280;13578;53.450;15.496;2023-10-08T06:07:54;100373.69;;;5.79;100.00
25722;BME280;13578;53.450;15.496;2023-10-08T06:10:55;100386.16;;;5.83;100.00
25722;BME280;13578;53.450;15.496;2023-10-08T06:14:01;100386.25;;;5.81;100.00
25722;BME280;13578;53.450;15.496;2023-10-08T06:17:02;100391.25;;;5.89;100.00
25722;BME280;13578;53.450;15.496;2023-10-08T06:20:14;100390.97;;;5.94;100.00
25722;BME280;13578;53.450;15.496;2023-10-08T06:23:17;100400.34;;;6.04;100.00
25722;BME280;13578;53.450;15.496;2023-10-08T06:26:19;100407.53;;;6.05;100.00
25722;BME280;13578;53.450;15.496;2023-10-08T06:29:21;100405.41;;;6.10;100.00
25722;BME280;13578;53.450;15.496;2023-10-08T06:32:28;100401.81;;;6.10;100.00
25722;BME280;13578;53.450;15.496;2023-10-08T06:35:30;100409.44;;;6.19;100.00
25722;BME280;13578;53.450;15.496;2023-10-08T06:38:33;100414.38;;;6.27;100.00
25722;BME280;13578;53.450;15.496;2023-10-08T06:41:34;100424.72;;;6.36;100.00
25722;BME280;13578;53.450;15.496;2023-10-08T06:44:34;100432.81;;;6.38;100.00
25722;BME280;13578;53.450;15.496;2023-10-08T06:47:37;100443.81;;;6.50;100.00
25722;BME280;13578;53.450;15.496;2023-10-08T06:50:39;100446.94;;;6.59;100.00
25722;BME280;13578;53.450;15.496;2023-10-08T06:53:42;100452.41;;;6.73;100.00
25722;BME280;13578;53.450;15.496;2023-10-08T06:56:44;100458.16;;;6.83;100.00
25722;BME280;13578;53.450;15.496;2023-10-08T06:59:52;100468.38;;;6.94;100.00
25722;BME280;13578;53.450;15.496;2023-10-08T07:02:52;100472.16;;;7.06;100.00
25722;BME280;13578;53.450;15.496;2023-10-08T07:05:54;100471.88;;;7.10;100.00
25722;BME280;13578;53.450;15.496;2023-10-08T07:09:01;100471.84;;;7.25;100.00
25722;BME280;13578;53.450;15.496;2023-10-08T07:12:05;100482.72;;;7.39;100.00
25722;BME280;13578;53.450;15.496;2023-10-08T07:15:14;100491.06;;;7.51;100.00
25722;BME280;13578;53.450;15.496;2023-10-08T07:18:14;100494.66;;;7.66;100.00
25722;BME280;13578;53.450;15.496;2023-10-08T07:21:21;100489.44;;;7.75;100.00
25722;BME280;13578;53.450;15.496;2023-10-08T07:24:45;100482.34;;;7.86;100.00
25722;BME280;13578;53.450;15.496;2023-10-08T07:27:52;100496.97;;;7.99;100.00
25722;BME280;13578;53.450;15.496;2023-10-08T07:30:53;100501.38;;;8.15;100.00
25722;BME280;13578;53.450;15.496;2023-10-08T07:33:56;100497.25;;;8.22;100.00
25722;BME280;13578;53.450;15.496;2023-10-08T07:36:56;100501.19;;;8.31;100.00
25722;BME280;13578;53.450;15.496;2023-10-08T07:39:57;100507.75;;;8.41;100.00
25722;BME280;13578;53.450;15.496;2023-10-08T07:42:59;100504.28;;;8.52;100.00
25722;BME280;13578;53.450;15.496;2023-10-08T07:46:08;100519.88;;;8.64;100.00
25722;BME280;13578;53.450;15.496;2023-10-08T07:49:13;100524.13;;;8.81;100.00
25722;BME280;13578;53.450;15.496;2023-10-08T07:52:14;100535.19;;;8.93;100.00
25722;BME280;13578;53.450;15.496;2023-10-08T07:55:16;100528.53;;;8.97;100.00
25722;BME280;13578;53.450;15.496;2023-10-08T07:58:18;100554.22;;;9.07;100.00
25722;BME280;13578;53.450;15.496;2023-10-08T08:01:18;100544.06;;;9.22;100.00
25722;BME280;13578;53.450;15.496;2023-10-08T08:04:21;100540.97;;;9.40;100.00
25722;BME280;13578;53.450;15.496;2023-10-08T08:07:23;100550.47;;;9.47;100.00
25722;BME280;13578;53.450;15.496;2023-10-08T08:10:25;100541.81;;;9.53;100.00
25722;BME280;13578;53.450;15.496;2023-10-08T08:13:26;100553.28;;;9.58;100.00
25722;BME280;13578;53.450;15.496;2023-10-08T08:16:28;100554.25;;;9.70;100.00
25722;BME280;13578;53.450;15.496;2023-10-08T08:19:29;100553.91;;;9.75;100.00
25722;BME280;13578;53.450;15.496;2023-10-08T08:22:31;100550.06;;;9.77;100.00
25722;BME280;13578;53.450;15.496;2023-10-08T08:25:39;100567.22;;;9.92;100.00
25722;BME280;13578;53.450;15.496;2023-10-08T08:29:02;100554.22;;;10.07;100.00
25722;BME280;13578;53.450;15.496;2023-10-08T08:32:02;100537.97;;;10.04;100.00
25722;BME280;13578;53.450;15.496;2023-10-08T08:35:09;100544.09;;;10.08;100.00
25722;BME280;13578;53.450;15.496;2023-10-08T08:38:09;100543.63;;;10.14;100.00
25722;BME280;13578;53.450;15.496;2023-10-08T08:41:12;100545.69;;;10.23;100.00
25722;BME280;13578;53.450;15.496;2023-10-08T08:44:13;100530.16;;;10.35;100.00
25722;BME280;13578;53.450;15.496;2023-10-08T08:47:15;100545.81;;;10.46;100.00
25722;BME280;13578;53.450;15.496;2023-10-08T08:50:19;100530.97;;;10.48;100.00
25722;BME280;13578;53.450;15.496;2023-10-08T08:53:20;100529.22;;;10.47;100.00
25722;BME280;13578;53.450;15.496;2023-10-08T08:56:22;100520.13;;;10.58;100.00
25722;BME280;13578;53.450;15.496;2023-10-08T08:59:24;100513.66;;;10.59;100.00
25722;BME280;13578;53.450;15.496;2023-10-08T09:02:25;100499.94;;;10.59;100.00
25722;BME280;13578;53.450;15.496;2023-10-08T09:05:25;100523.16;;;10.67;100.00
25722;BME280;13578;53.450;15.496;2023-10-08T09:08:33;100522.66;;;10.73;100.00
25722;BME280;13578;53.450;15.496;2023-10-08T09:11:38;100507.44;;;10.80;100.00
25722;BME280;13578;53.450;15.496;2023-10-08T09:14:42;100516.31;;;10.84;100.00
25722;BME280;13578;53.450;15.496;2023-10-08T09:17:43;100512.47;;;10.86;100.00
25722;BME280;13578;53.450;15.496;2023-10-08T09:20:44;100496.09;;;10.85;100.00
25722;BME280;13578;53.450;15.496;2023-10-08T09:23:49;100505.50;;;10.93;100.00
25722;BME280;13578;53.450;15.496;2023-10-08T09:26:51;100511.97;;;11.04;100.00
25722;BME280;13578;53.450;15.496;2023-10-08T09:29:54;100500.50;;;10.99;100.00
25722;BME280;13578;53.450;15.496;2023-10-08T09:32:55;100510.34;;;11.01;100.00
25722;BME280;13578;53.450;15.496;2023-10-08T09:35:57;100514.34;;;11.08;100.00
25722;BME280;13578;53.450;15.496;2023-10-08T09:39:03;100512.34;;;11.22;100.00
25722;BME280;13578;53.450;15.496;2023-10-08T09:42:07;100505.00;;;11.22;100.00
25722;BME280;13578;53.450;15.496;2023-10-08T09:45:11;100520.72;;;11.32;100.00
25722;BME280;13578;53.450;15.496;2023-10-08T09:48:16;100532.22;;;11.37;100.00
25722;BME280;13578;53.450;15.496;2023-10-08T09:51:17;100532.94;;;11.50;100.00
25722;BME280;13578;53.450;15.496;2023-10-08T09:54:23;100559.41;;;11.63;100.00
25722;BME280;13578;53.450;15.496;2023-10-08T09:57:25;100559.53;;;11.72;100.00
25722;BME280;13578;53.450;15.496;2023-10-08T10:00:28;100533.88;;;11.83;100.00
25722;BME280;13578;53.450;15.496;2023-10-08T10:03:32;100554.63;;;11.99;100.00
25722;BME280;13578;53.450;15.496;2023-10-08T10:06:36;100555.88;;;11.95;100.00
25722;BME280;13578;53.450;15.496;2023-10-08T10:09:37;100552.88;;;11.75;100.00
25722;BME280;13578;53.450;15.496;2023-10-08T10:12:38;100569.66;;;11.60;100.00
25722;BME280;13578;53.450;15.496;2023-10-08T10:15:42;100604.13;;;11.76;100.00
25722;BME280;13578;53.450;15.496;2023-10-08T10:18:48;100614.91;;;11.79;100.00
25722;BME280;13578;53.450;15.496;2023-10-08T10:21:49;100608.41;;;11.46;100.00
25722;BME280;13578;53.450;15.496;2023-10-08T10:24:51;100625.38;;;11.40;100.00
25722;BME280;13578;53.450;15.496;2023-10-08T10:30:55;100624.41;;;11.30;100.00
25722;BME280;13578;53.450;15.496;2023-10-08T10:33:57;100640.66;;;11.55;100.00
25722;BME280;13578;53.450;15.496;2023-10-08T10:36:58;100614.16;;;11.43;100.00
25722;BME280;13578;53.450;15.496;2023-10-08T10:40:02;100613.00;;;11.23;100.00
25722;BME280;13578;53.450;15.496;2023-10-08T10:43:10;100633.84;;;11.14;100.00
25722;BME280;13578;53.450;15.496;2023-10-08T10:46:10;100643.72;;;11.28;100.00
25722;BME280;13578;53.450;15.496;2023-10-08T10:49:29;100615.03;;;11.66;100.00
25722;BME280;13578;53.450;15.496;2023-10-08T10:52:33;100608.56;;;11.56;100.00
25722;BME280;13578;53.450;15.496;2023-10-08T10:55:54;100620.16;;;11.48;100.00
25722;BME280;13578;53.450;15.496;2023-10-08T10:59:09;100642.28;;;11.47;100.00
25722;BME280;13578;53.450;15.496;2023-10-08T11:02:19;100651.66;;;11.55;100.00
25722;BME280;13578;53.450;15.496;2023-10-08T11:05:34;100645.13;;;11.68;100.00
25722;BME280;13578;53.450;15.496;2023-10-08T11:08:37;100648.03;;;11.78;100.00
25722;BME280;13578;53.450;15.496;2023-10-08T11:11:38;100638.78;;;11.67;100.00
25722;BME280;13578;53.450;15.496;2023-10-08T11:14:47;100627.38;;;11.83;100.00
25722;BME280;13578;53.450;15.496;2023-10-08T11:17:47;100643.75;;;11.96;100.00
25722;BME280;13578;53.450;15.496;2023-10-08T11:20:50;100621.38;;;12.12;100.00
25722;BME280;13578;53.450;15.496;2023-10-08T11:24:13;100618.59;;;12.23;100.00
25722;BME280;13578;53.450;15.496;2023-10-08T11:27:25;100614.00;;;12.01;100.00
25722;BME280;13578;53.450;15.496;2023-10-08T11:30:37;100616.38;;;12.06;100.00
25722;BME280;13578;53.450;15.496;2023-10-08T11:33:44;100599.00;;;12.05;100.00
25722;BME280;13578;53.450;15.496;2023-10-08T11:36:57;100601.50;;;11.86;100.00
25722;BME280;13578;53.450;15.496;2023-10-08T11:39:57;100618.03;;;11.63;100.00
25722;BME280;13578;53.450;15.496;2023-10-08T11:42:58;100637.28;;;11.63;100.00
25722;BME280;13578;53.450;15.496;2023-10-08T11:45:59;100650.66;;;11.79;100.00
25722;BME280;13578;53.450;15.496;2023-10-08T11:49:03;100634.88;;;11.92;100.00
25722;BME280;13578;53.450;15.496;2023-10-08T11:52:04;100642.41;;;11.79;100.00
25722;BME280;13578;53.450;15.496;2023-10-08T11:55:05;100622.91;;;11.48;100.00
25722;BME280;13578;53.450;15.496;2023-10-08T11:58:06;100614.13;;;11.20;100.00
25722;BME280;13578;53.450;15.496;2023-10-08T12:01:13;100620.34;;;11.00;100.00
25722;BME280;13578;53.450;15.496;2023-10-08T12:04:18;100649.44;;;11.13;100.00
25722;BME280;13578;53.450;15.496;2023-10-08T12:07:18;100606.41;;;11.37;100.00
25722;BME280;13578;53.450;15.496;2023-10-08T12:10:19;100598.16;;;11.48;99.08
25722;BME280;13578;53.450;15.496;2023-10-08T12:13:23;100584.69;;;11.45;94.20
25722;BME280;13578;53.450;15.496;2023-10-08T12:16:25;100612.41;;;11.53;100.00
25722;BME280;13578;53.450;15.496;2023-10-08T12:19:29;100595.19;;;11.51;94.01
25722;BME280;13578;53.450;15.496;2023-10-08T12:22:32;100602.16;;;11.55;94.94
25722;BME280;13578;53.450;15.496;2023-10-08T12:25:33;100580.94;;;11.57;92.30
25722;BME280;13578;53.450;15.496;2023-10-08T12:28:33;100587.81;;;11.63;90.83
25722;BME280;13578;53.450;15.496;2023-10-08T12:31:34;100585.69;;;11.67;91.06
25722;BME280;13578;53.450;15.496;2023-10-08T12:34:35;100617.41;;;11.71;98.09
25722;BME280;13578;53.450;15.496;2023-10-08T12:37:35;100588.53;;;11.76;89.05
25722;BME280;13578;53.450;15.496;2023-10-08T12:40:37;100563.53;;;11.68;81.56
25722;BME280;13578;53.450;15.496;2023-10-08T12:44:10;100545.31;;;11.44;80.58
25722;BME280;13578;53.450;15.496;2023-10-08T12:47:11;100567.16;;;11.46;82.33
25722;BME280;13578;53.450;15.496;2023-10-08T12:50:13;100560.69;;;11.47;80.95
25722;BME280;13578;53.450;15.496;2023-10-08T12:53:16;100573.69;;;11.45;79.05
25722;BME280;13578;53.450;15.496;2023-10-08T12:56:17;100635.78;;;11.59;94.02
25722;BME280;13578;53.450;15.496;2023-10-08T12:59:21;100592.53;;;11.72;83.26
25722;BME280;13578;53.450;15.496;2023-10-08T13:02:24;100588.63;;;11.75;80.98
25722;BME280;13578;53.450;15.496;2023-10-08T13:05:28;100629.66;;;11.78;89.86
25722;BME280;13578;53.450;15.496;2023-10-08T13:08:30;100616.66;;;11.80;90.83
25722;BME280;13578;53.450;15.496;2023-10-08T13:11:31;100589.03;;;11.82;83.14
25722;BME280;13578;53.450;15.496;2023-10-08T13:14:34;100571.91;;;11.78;78.38
25722;BME280;13578;53.450;15.496;2023-10-08T13:17:35;100526.69;;;11.59;71.01
25722;BME280;13578;53.450;15.496;2023-10-08T13:20:36;100555.19;;;11.47;76.29
25722;BME280;13578;53.450;15.496;2023-10-08T13:23:36;100560.44;;;11.39;75.72
25722;BME280;13578;53.450;15.496;2023-10-08T13:26:37;100548.34;;;11.41;73.31
25722;BME280;13578;53.450;15.496;2023-10-08T13:29:39;100558.31;;;11.42;74.20
25722;BME280;13578;53.450;15.496;2023-10-08T13:32:39;100566.78;;;11.51;75.94
25722;BME280;13578;53.450;15.496;2023-10-08T13:35:40;100577.44;;;11.44;76.63
25722;BME280;13578;53.450;15.496;2023-10-08T13:38:41;100560.69;;;11.36;75.56
25722;BME280;13578;53.450;15.496;2023-10-08T13:41:41;100549.44;;;11.27;71.58
25722;BME280;13578;53.450;15.496;2023-10-08T13:44:42;100565.41;;;11.11;73.56
25722;BME280;13578;53.450;15.496;2023-10-08T13:47:45;100559.78;;;11.12;71.61
25722;BME280;13578;53.450;15.496;2023-10-08T13:50:47;100560.19;;;11.08;72.42
25722;BME280;13578;53.450;15.496;2023-10-08T13:53:50;100590.50;;;11.06;78.59
25722;BME280;13578;53.450;15.496;2023-10-08T13:56:53;100585.63;;;11.10;77.19
25722;BME280;13578;53.450;15.496;2023-10-08T13:59:54;100592.38;;;11.17;79.27
25722;BME280;13578;53.450;15.496;2023-10-08T14:02:56;100591.75;;;11.13;80.74
25722;BME280;13578;53.450;15.496;2023-10-08T14:05:58;100602.50;;;11.17;82.58
25722;BME280;13578;53.450;15.496;2023-10-08T14:09:03;100600.25;;;11.22;79.16
25722;BME280;13578;53.450;15.496;2023-10-08T14:12:08;100588.78;;;11.17;78.23
25722;BME280;13578;53.450;15.496;2023-10-08T14:15:10;100581.03;;;11.10;77.18
25722;BME280;13578;53.450;15.496;2023-10-08T14:18:15;100604.50;;;11.03;80.79
25722;BME280;13578;53.450;15.496;2023-10-08T14:21:17;100622.72;;;11.04;84.36
25722;BME280;13578;53.450;15.496;2023-10-08T14:24:19;100599.72;;;10.94;80.35
25722;BME280;13578;53.450;15.496;2023-10-08T14:27:20;100594.59;;;10.89;79.71
25722;BME280;13578;53.450;15.496;2023-10-08T14:30:25;100601.69;;;10.80;79.57
25722;BME280;13578;53.450;15.496;2023-10-08T14:33:30;100604.78;;;10.64;79.65
25722;BME280;13578;53.450;15.496;2023-10-08T14:36:33;100597.47;;;10.52;75.36
25722;BME280;13578;53.450;15.496;2023-10-08T14:39:52;100587.66;;;10.37;73.60
25722;BME280;13578;53.450;15.496;2023-10-08T14:43:11;100601.53;;;10.22;78.39
25722;BME280;13578;53.450;15.496;2023-10-08T14:46:12;100615.16;;;10.24;79.88
25722;BME280;13578;53.450;15.496;2023-10-08T14:49:15;100622.97;;;10.17;80.89
25722;BME280;13578;53.450;15.496;2023-10-08T14:52:16;100616.72;;;10.15;80.98
25722;BME280;13578;53.450;15.496;2023-10-08T14:55:17;100628.91;;;10.11;82.58
25722;BME280;13578;53.450;15.496;2023-10-08T14:58:21;100611.94;;;10.06;79.52
25722;BME280;13578;53.450;15.496;2023-10-08T15:01:23;100641.03;;;9.95;87.34
25722;BME280;13578;53.450;15.496;2023-10-08T15:04:25;100650.03;;;9.97;90.38
25722;BME280;13578;53.450;15.496;2023-10-08T15:07:28;100657.34;;;9.97;92.74
25722;BME280;13578;53.450;15.496;2023-10-08T15:10:29;100658.72;;;9.91;91.59
25722;BME280;13578;53.450;15.496;2023-10-08T15:13:30;100666.94;;;9.78;92.59
25722;BME280;13578;53.450;15.496;2023-10-08T15:16:33;100703.91;;;9.73;100.00
25722;BME280;13578;53.450;15.496;2023-10-08T15:19:34;100706.44;;;9.76;100.00
25722;BME280;13578;53.450;15.496;2023-10-08T15:22:34;100695.03;;;9.69;100.00
25722;BME280;13578;53.450;15.496;2023-10-08T15:25:35;100692.28;;;9.69;98.76
25722;BME280;13578;53.450;15.496;2023-10-08T15:28:36;100716.75;;;9.59;100.00
25722;BME280;13578;53.450;15.496;2023-10-08T15:31:37;100726.38;;;9.52;100.00
25722;BME280;13578;53.450;15.496;2023-10-08T15:34:37;100717.81;;;9.44;100.00
25722;BME280;13578;53.450;15.496;2023-10-08T15:37:40;100719.25;;;9.36;100.00
25722;BME280;13578;53.450;15.496;2023-10-08T15:40:40;100726.16;;;9.29;100.00
25722;BME280;13578;53.450;15.496;2023-10-08T15:43:50;100734.56;;;9.26;100.00
25722;BME280;13578;53.450;15.496;2023-10-08T15:46:52;100757.88;;;9.19;100.00
25722;BME280;13578;53.450;15.496;2023-10-08T15:49:52;100764.09;;;9.08;100.00
25722;BME280;13578;53.450;15.496;2023-10-08T15:52:53;100779.00;;;9.04;100.00